Lynton, United Kingdom
Current Conditions -  °F | °C
As of 6:50 AM on Wednesday 22 Oct 2014 (Local Time) from EGDX Reporting Station
Broken Clouds Broken Clouds  
Wind Chill: 52°   Ceiling: 13000
Heat Index: 52°   Visibility: 6mi
Dew Point: 43°   Wind: 15mph
Humidity: 71%   Direction: 300°WNW
Pressure: 30.3"   Gusts: NA
Location:  51.23°N, 3.83°W
Report Text: EGDX 220550Z AUTO 30013KT 9999 BKN130/// 11/06 Q1026
Loading
Personal Weather Stations






























Interactive Weather Map
Tropical Storm Tracking
New forecast layout! Learn more

10-Day Weather Forecast

Advertisements
Track Severe Weather on mobile